Time;durP1;ratioP1;P1;durP2;ratioP2;P2;SDS_P1;SDS_P2;PMS_P1;PMS_P2;Temp;Humidity;BMP_temperature;BMP_pressure;BME280_temperature;BME280_humidity;BME280_pressure;Samples;Min_cycle;Max_cycle;Signal;HPM_P1;HPM_P2
2022/03/30 05:58:19;;;;;;;66.88;39.67;;;;;;;;;;6187566;23;20056;-92
2022/03/30 06:00:45;;;;;;;65.78;39.67;;;;;;;;;;6186898;23;20012;-94
2022/03/30 06:03:10;;;;;;;70.28;39.45;;;;;;;;;;6185475;23;20009;-94
2022/03/30 18:55:43;;;;;;;58.47;35.88;;;;;;;;;;6207772;22;20060;-88
2022/03/30 18:58:12;;;;;;;55.30;36.78;;;;;;;;;;6209348;23;20008;-85
2022/03/30 19:00:38;;;;;;;58.95;38.10;;;;;;;;;;6245987;23;20010;-83
2022/03/30 19:03:18;;;;;;;66.93;38.28;;;;;;;;;;6246100;23;20083;-84
2022/03/30 19:05:44;;;;;;;63.65;38.03;;;;;;;;;;6246470;23;20008;-83
2022/03/30 19:08:13;;;;;;;59.00;36.50;;;;;;;;;;6246118;23;20004;-82
2022/03/30 19:10:40;;;;;;;58.83;36.72;;;;;;;;;;6246415;23;20004;-86
2022/03/30 19:13:06;;;;;;;53.83;36.08;;;;;;;;;;6246359;23;20073;-84
2022/03/30 19:15:31;;;;;;;51.60;34.72;;;;;;;;;;6246651;23;20423;-87
2022/03/30 19:17:57;;;;;;;60.70;37.63;;;;;;;;;;6246969;23;20007;-86
2022/03/30 19:20:24;;;;;;;60.35;37.92;;;;;;;;;;6246651;23;20419;-89
2022/03/30 19:22:50;;;;;;;61.60;39.35;;;;;;;;;;6246959;23;20035;-90
2022/03/30 19:25:21;;;;;;;58.40;38.55;;;;;;;;;;6221017;23;20012;-90
2022/03/30 19:27:48;;;;;;;63.55;39.85;;;;;;;;;;6247828;23;20008;-86
2022/03/30 19:30:13;;;;;;;58.22;37.55;;;;;;;;;;6248956;23;20457;-85
2022/03/30 19:32:39;;;;;;;55.95;37.25;;;;;;;;;;6249433;23;20040;-88
2022/03/30 19:35:04;;;;;;;59.80;37.75;;;;;;;;;;6248960;23;20008;-88
2022/03/30 19:37:30;;;;;;;59.47;38.53;;;;;;;;;;6249075;23;20050;-87
2022/03/30 19:39:55;;;;;;;58.90;38.15;;;;;;;;;;6249388;23;20319;-89
2022/03/30 19:42:21;;;;;;;59.72;36.88;;;;;;;;;;6248955;23;20032;-88
2022/03/30 19:44:46;;;;;;;57.55;36.53;;;;;;;;;;6249083;23;20079;-89
2022/03/30 19:47:12;;;;;;;59.65;38.70;;;;;;;;;;6249033;23;20004;-90
2022/03/30 19:49:38;;;;;;;59.60;38.58;;;;;;;;;;6249390;23;20054;-88
2022/03/30 19:52:06;;;;;;;58.90;40.03;;;;;;;;;;6248948;23;20375;-91
2022/03/30 19:54:32;;;;;;;62.08;38.80;;;;;;;;;;6248600;23;20008;-88
2022/03/30 19:56:58;;;;;;;62.53;39.92;;;;;;;;;;6249139;23;20011;-93
2022/03/30 19:59:23;;;;;;;63.13;37.38;;;;;;;;;;6249053;23;20062;-90
2022/03/30 20:01:49;;;;;;;62.33;39.45;;;;;;;;;;6248613;23;20007;-88
2022/03/30 20:04:14;;;;;;;66.40;40.17;;;;;;;;;;6248311;23;20007;-89
2022/03/30 20:06:46;;;;;;;60.78;39.50;;;;;;;;;;6249009;23;20054;-92
2022/03/30 20:09:17;;;;;;;61.85;40.75;;;;;;;;;;6250644;23;20008;-91
2022/03/30 20:11:43;;;;;;;63.42;39.75;;;;;;;;;;6249875;23;20055;-83
2022/03/30 20:14:08;;;;;;;63.45;39.53;;;;;;;;;;6248730;23;20408;-92
2022/03/30 20:16:34;;;;;;;59.13;39.08;;;;;;;;;;6248666;23;20007;-93
2022/03/30 20:19:04;;;;;;;67.30;40.72;;;;;;;;;;6248732;23;20390;-90
2022/03/30 20:21:30;;;;;;;61.10;39.33;;;;;;;;;;6248326;23;20000;-85
2022/03/30 20:23:57;;;;;;;71.65;44.22;;;;;;;;;;6248127;23;20083;-83
2022/03/30 20:26:25;;;;;;;63.58;41.00;;;;;;;;;;6248316;23;20495;-84
2022/03/30 20:28:51;;;;;;;66.70;42.72;;;;;;;;;;6248099;23;20102;-92
2022/03/30 20:31:16;;;;;;;65.30;41.80;;;;;;;;;;6220991;23;20087;-85
2022/03/30 20:33:42;;;;;;;63.97;40.17;;;;;;;;;;6248211;23;20000;-87
2022/03/30 20:36:07;;;;;;;60.35;38.70;;;;;;;;;;6248169;23;20416;-87
2022/03/30 20:38:33;;;;;;;60.10;39.45;;;;;;;;;;6247779;23;20107;-87
2022/03/30 20:40:58;;;;;;;65.85;41.22;;;;;;;;;;6247840;23;20011;-82
2022/03/30 20:43:23;;;;;;;59.88;39.70;;;;;;;;;;6247641;23;20004;-85
2022/03/30 20:45:49;;;;;;;57.95;39.58;;;;;;;;;;6247924;23;20158;-83
2022/03/30 20:48:14;;;;;;;61.08;41.92;;;;;;;;;;6247552;23;20411;-83
2022/03/30 20:50:42;;;;;;;63.75;40.08;;;;;;;;;;6220769;23;20036;-85
2022/03/30 20:53:08;;;;;;;69.40;41.10;;;;;;;;;;6247643;23;20008;-88
2022/03/30 20:55:34;;;;;;;64.93;41.75;;;;;;;;;;6247198;23;20016;-82
2022/03/30 20:58:01;;;;;;;63.45;40.83;;;;;;;;;;6247320;23;20019;-82
2022/03/30 21:00:26;;;;;;;63.40;40.10;;;;;;;;;;6247719;23;20411;-83
2022/03/30 21:02:52;;;;;;;63.05;39.28;;;;;;;;;;6247820;23;20015;-83
2022/03/30 21:05:17;;;;;;;65.70;38.75;;;;;;;;;;6248064;23;20366;-87
2022/03/30 21:07:44;;;;;;;58.60;38.60;;;;;;;;;;6248086;23;20024;-86
2022/03/30 21:10:09;;;;;;;61.70;39.30;;;;;;;;;;6248359;23;20004;-86
2022/03/30 21:12:36;;;;;;;63.22;39.60;;;;;;;;;;6247905;23;20449;-86
2022/03/30 21:15:02;;;;;;;62.38;38.10;;;;;;;;;;6247885;23;20058;-86
2022/03/30 21:17:27;;;;;;;65.70;40.22;;;;;;;;;;6248023;23;20042;-86
2022/03/30 21:19:55;;;;;;;66.50;39.55;;;;;;;;;;6247646;23;20012;-82
2022/03/30 21:22:20;;;;;;;60.40;39.88;;;;;;;;;;6220397;23;20000;-84
2022/03/30 21:24:46;;;;;;;64.22;39.58;;;;;;;;;;6247035;23;20297;-82
2022/03/30 21:27:11;;;;;;;59.92;38.30;;;;;;;;;;6220575;23;20004;-84
2022/03/30 21:29:37;;;;;;;62.47;39.15;;;;;;;;;;6247977;23;20369;-83
2022/03/30 21:32:04;;;;;;;59.80;37.28;;;;;;;;;;6247518;23;20467;-84
2022/03/30 21:34:30;;;;;;;58.05;39.45;;;;;;;;;;6247311;23;20003;-86
2022/03/30 21:36:56;;;;;;;62.65;38.17;;;;;;;;;;6221093;23;20496;-84
2022/03/30 21:39:21;;;;;;;60.97;39.83;;;;;;;;;;6220891;23;20004;-84
2022/03/30 21:41:50;;;;;;;60.08;37.85;;;;;;;;;;6247686;23;20030;-87
2022/03/30 21:44:18;;;;;;;60.65;38.58;;;;;;;;;;6247592;23;20054;-82
2022/03/30 21:46:44;;;;;;;65.68;40.25;;;;;;;;;;6247324;23;20005;-84
